Thursday, January 29, 2015
10:18 UTC
  |  Log In   |  Register Free
Airport Search:

Pearson Field Airport
(KVUO)

Pearson Field Airport Diagram
No Airport Diagram Available

FAA data valid effective January 08, 2015 - March 05, 2015 (unless otherwise noted).

 
 
 
 
 
 
 
 
 
 
 
 
 
 

Current Aviation Weather for Pearson Field Airport (KVUO)

The most recent METAR observation for KVUO was updated at: 1017
METAR Summary (Translated METAR)
KVUO
290953Z AUTO 00000KT 10SM SCT008 BKN120 07/05 A3034 RMK AO2 SLP273 T00670050
KPDX
290953Z 00000KT 10SM BKN120 07/06 A3034 RMK AO2 SLP273 T00720056
(3.1 nm SE from KVUO)
KTTD
290953Z AUTO 10021G31KT 10SM OVC110 07/03 A3032 RMK AO2 PK WND 09031/0946 SLP267 T00720028
(11.5 nm SE from KVUO)
TAF Summary (Translated TAF)
KPDX
(3.1 nm SE from KVUO)
290855Z 2909/3006 VRB03KT P6SM FEW010 BKN120 FM291500 09005KT P6SM SCT010 SCT100 FM300100 05005KT P6SM SCT100
KTTD
(11.5 nm SE from KVUO)
290532Z 2906/3006 09015G21KT P6SM SCT010 BKN110 FM290900 09012G20KT P6SM SCT060 BKN100 FM291600 09015G22KT P6SM SCT100 FM300200 09010KT P6SM SCT100
  Airport Weather Conditions for KVUO

 Current Weather at VUO
44° F
Mostly Cloudy
North winds at 0.0 mph
VUO NOAA Radar

Pressure: 30.34 in
Humidity: 89%
Wind: Calm
Dew Point: 41.0°F
Visibility: 10.00 mi


Airport Weather Forecast for KVUO

Translated METAR and TAF for KVUO
Translated METAR for KVUO (1019 UTC 29 January 2015)
found at http://aviationweather.gov/adds/metars/
 
METAR text: KVUO 290953Z AUTO 00000KT 10SM SCT008 BKN120 07/05 A3034 RMK AO2 SLP273 T00670050
Conditions at: KVUO (VANCOUVER , WA, US) observed 0953 UTC 29 January 2015
Temperature: 6.7°C (44°F)
Dewpoint: 5.0°C (41°F) [RH = 89%]
Pressure (altimeter): 30.34 inches Hg (1027.5 mb)
[Sea-level pressure: 1027.3 mb]
Winds: calm
Visibility: 10 or more miles (16+ km)
Ceiling: 12000 feet AGL
Clouds: scattered clouds at 800 feet AGL
broken clouds at 12000 feet AGL
Weather: automated observation with no human augmentation;
there may or may not be significant weather present at this time
Translated TAF for KVUO

There is no translated TAF available for this airport

Find All Airport Services Find A Hotel Find A Rental Car Find A Golf Course Find A Restaurant $100 Hamburger



FBO's on the Field
FBO Company Facility Photos Services Transportation Aviation Fuel Prices: Prices include tax
Catering Weather Repair Courtesy Rental Type 100LL JetA JetA+ MOGAS 8087
 
Aero Maintenance Inc

This FBO has not yet been rated
FS:Epic
Last Updated: Jan-27
Login to update fuel prices
SS:
Contact Aero Maintenance IncMore FBO Information
 
Add another FBO Facility Photos Catering Weather Repair Courtesy Rental Type 100LL JetA JetA+ MOGAS 8087
Services Transportation Aviation Fuel Prices: Prices include tax


model-print
model-print
model-print
model-print